This is the latest recevied weather packets stored in our database for station/object KA0EGE. If no packets are shown the sender has not sent any weather packets the latest 10 day(s).
| Time | Temp. | Humidity | Pressure | Rain* | Wind** | Luminosity | Snow |
|---|---|---|---|---|---|---|---|
| 1778001496 | 25.56° C | 68% | 1018.7 hPa | 0 mm | - | 912 W/m² | - |
| 1778001193 | 25° C | 68% | 1018.7 hPa | 0 mm | - | 882 W/m² | - |
| 1778000889 | 25.56° C | 68% | 1018.7 hPa | 0 mm | - | 341 W/m² | - |
| 1778000587 | 24.44° C | 70% | 1018.9 hPa | 0 mm | - | 370 W/m² | - |
| 1778000282 | 25.56° C | 69% | 1018.6 hPa | 0 mm | - | 508 W/m² | - |
| 1777999978 | 24.44° C | 72% | 1018.9 hPa | 0 mm | - | 886 W/m² | - |
| 1777999674 | 25° C | 69% | 1018.9 hPa | 0 mm | - | 295 W/m² | - |
| 1777999371 | 25° C | 70% | 1018.9 hPa | 0 mm | - | 780 W/m² | - |
| 1777999069 | 25° C | 70% | 1019.1 hPa | 0 mm | - | 503 W/m² | - |
| 1777998768 | 25° C | 69% | 1019 hPa | 0 mm | - | 377 W/m² | - |
| 1777998465 | 25° C | 67% | 1018.8 hPa | 0 mm | - | 394 W/m² | - |
| 1777998161 | 25° C | 69% | 1018.7 hPa | 0 mm | - | 537 W/m² | - |
| 1777997858 | 25° C | 68% | 1018.6 hPa | 0 mm | - | 318 W/m² | - |
| 1777997556 | 25° C | 68% | 1018.6 hPa | 0 mm | - | 306 W/m² | - |
| 1777997253 | 25° C | 69% | 1018.6 hPa | 0 mm | - | 444 W/m² | - |
| 1777996951 | 24.44° C | 72% | 1018.7 hPa | 0 mm | - | 955 W/m² | - |
| 1777996647 | 23.89° C | 70% | 1018.7 hPa | 0 mm | - | 315 W/m² | - |
| 1777996343 | 23.89° C | 71% | 1018.7 hPa | 0 mm | - | 324 W/m² | - |
| 1777996040 | 25° C | 68% | 1018.7 hPa | 0 mm | - | 321 W/m² | - |
| 1777995736 | 23.89° C | 73% | 1018.7 hPa | 0 mm | - | 934 W/m² | - |
| 1777995432 | 23.89° C | 72% | 1018.9 hPa | 0 mm | - | 887 W/m² | - |
| 1777995130 | 24.44° C | 70% | 1018.9 hPa | 0 mm | - | 329 W/m² | - |
| 1777994827 | 23.89° C | 71% | 1018.8 hPa | 0 mm | - | 742 W/m² | - |
| 1777994523 | 24.44° C | 70% | 1018.6 hPa | 0 mm | - | 405 W/m² | - |
| 1777994218 | 24.44° C | 70% | 1018.8 hPa | 0 mm | - | 720 W/m² | - |
* Rain latest hour (hover to see other rain measurements)
** Current wind speed in m/s (hover to see current wind gust speed)